Huvudsida
METAR-TAF:

METAR-TAF

Flygplatser :

Al Ain International Airport

Al Ain, Förenade Arabemiraten

latitud: 24-16N, longitud: 055-36E, höjd: 265 m

Aktuellt väderrapport

Denna rapport gjordes för 35 minuter sedan, klockan 22:00 UTC
Vind 5 kt från nordost
Temperatur 20°C
Fuktighet 73%
Tryck 1015 hPa
Sikt: 8000 m

METAR: OMAL 152200Z 04005KT 8000 NSC 20/15 Q1015 NOSIG

Tid: 02:35 (22:35 UTC)

Väderprognos

Denna rapport gjordes för 5 timmar och 35 minuter sedan, klockan 17:00 UTC
Prognos gäller från 15 kl. 18 UTC till 17 kl. 00 UTC
Vind 8 kt från nord
Sikt: 8000 m
Få moln på en höjd av 4000 ft
Blir
från 15 kl. 19 UTC till 15 kl. 21 UTC
Vind 6 kt från ost/sydost
Blir
från 16 kl. 11 UTC till 16 kl. 13 UTC
Vind 10 kt från nord/nordväst
Blir
från 16 kl. 18 UTC till 16 kl. 20 UTC
Vind 7 kt från ost

TAF: OMAL 151700Z 1518/1700 35008KT 8000 FEW040 BECMG 1519/1521 12006KT BECMG 1611/1613 34010KT BECMG 1618/1620 08007KT

Aktuella väderrapporter och prognoser från 4000 flygplatser (METAR- och TAF-rapporter).

De tillgängliga stationerna syns som gula och röda prickar på kartan.

För musen över prickarna för att se namnen på stationerna.

Klicka sedan för att få väderrapporter och prognoser.

För att ändra kartan: Klicka på de gröna knapparna med ett svart kors på för att zooma in; den gröna knappen med ett streck på för att zooma ut; eller på de gröna pilarna för angränsande kartor.


METAR-TAF: